createdAt,value
2023-03-02T00:00:53.596Z,68.15
2023-03-02T00:04:08.340Z,71.48
2023-03-02T00:07:24.859Z,70.70
2023-03-02T00:10:40.264Z,66.90
2023-03-02T00:14:06.513Z,71.73
2023-03-02T00:17:18.534Z,71.93
2023-03-02T00:20:41.522Z,81.03
2023-03-02T00:23:54.556Z,75.28
2023-03-02T00:27:09.109Z,74.90
2023-03-02T00:30:22.765Z,79.70
2023-03-02T00:33:34.658Z,72.35
2023-03-02T00:36:48.636Z,87.88
2023-03-02T00:40:01.006Z,77.93
2023-03-02T00:43:12.997Z,81.30
2023-03-02T00:46:28.655Z,81.10
2023-03-02T00:49:40.921Z,82.28
2023-03-02T00:52:52.813Z,84.58
2023-03-02T00:56:05.185Z,87.30
2023-03-02T00:59:21.652Z,90.58
2023-03-02T01:02:33.903Z,84.03
2023-03-02T01:05:46.135Z,77.15
2023-03-02T01:08:57.978Z,73.33
2023-03-02T01:12:11.509Z,80.58
2023-03-02T01:15:23.937Z,82.33
2023-03-02T01:18:38.240Z,74.98
2023-03-02T01:21:50.937Z,83.30
2023-03-02T01:25:04.010Z,74.03
2023-03-02T01:28:15.932Z,74.60
2023-03-02T01:31:30.530Z,80.25
2023-03-02T01:34:42.733Z,78.20
2023-03-02T01:37:54.640Z,72.63
2023-03-02T01:41:06.554Z,79.38
2023-03-02T01:44:45.050Z,75.75
2023-03-02T01:47:57.082Z,86.00
2023-03-02T01:51:13.140Z,78.03
2023-03-02T01:54:28.916Z,81.33
2023-03-02T01:57:47.503Z,80.65
2023-03-02T02:01:00.953Z,77.98
2023-03-02T02:04:14.250Z,79.80
2023-03-02T02:07:27.955Z,81.73
2023-03-02T02:10:42.564Z,78.83
2023-03-02T02:13:54.959Z,80.05
2023-03-02T02:17:06.953Z,84.03
2023-03-02T02:20:28.130Z,88.13
2023-03-02T02:23:47.110Z,82.70
2023-03-02T02:27:03.481Z,81.70
2023-03-02T02:30:21.432Z,78.48
2023-03-02T02:33:34.368Z,80.73
2023-03-02T02:36:51.293Z,73.45
2023-03-02T02:40:05.871Z,82.65
2023-03-02T02:43:22.156Z,87.70
2023-03-02T02:46:35.002Z,82.72
2023-03-02T02:49:48.323Z,79.45
2023-03-02T02:53:05.473Z,86.15
2023-03-02T02:56:19.560Z,88.40
2023-03-02T02:59:36.192Z,85.50
2023-03-02T03:02:52.154Z,89.80
2023-03-02T03:06:07.832Z,88.80
2023-03-02T03:09:20.055Z,88.65
2023-03-02T03:12:35.379Z,94.55
2023-03-02T03:15:47.893Z,96.28
2023-03-02T03:19:02.806Z,87.48
2023-03-02T03:22:16.419Z,89.28
2023-03-02T03:25:34.821Z,91.88
2023-03-02T03:28:47.112Z,85.00
2023-03-02T03:32:01.607Z,91.05
2023-03-02T03:35:16.230Z,93.03
2023-03-02T03:38:28.298Z,96.28
2023-03-02T03:41:40.796Z,101.33
2023-03-02T03:44:53.062Z,93.60
2023-03-02T03:48:06.532Z,93.40
2023-03-02T03:51:19.202Z,100.53
2023-03-02T03:54:31.517Z,95.18
2023-03-02T03:57:46.968Z,90.45
2023-03-02T04:00:59.677Z,94.58
2023-03-02T04:04:15.103Z,83.40
2023-03-02T04:07:27.352Z,96.10
2023-03-02T04:10:39.775Z,96.30
2023-03-02T04:13:52.661Z,96.03
2023-03-02T04:17:05.554Z,90.98
2023-03-02T04:20:22.128Z,89.55
2023-03-02T04:23:36.068Z,100.03
2023-03-02T04:26:50.729Z,98.05
2023-03-02T04:30:02.861Z,102.55
2023-03-02T04:33:17.239Z,97.43
2023-03-02T04:36:32.846Z,99.68
2023-03-02T04:39:49.676Z,97.80
2023-03-02T04:43:05.728Z,101.98
2023-03-02T04:46:44.793Z,98.00
2023-03-02T04:50:05.936Z,105.73
2023-03-02T04:53:19.677Z,106.70
2023-03-02T04:56:32.483Z,104.60
2023-03-02T04:59:45.000Z,102.40
2023-03-02T05:03:24.302Z,104.95
2023-03-02T05:07:46.877Z,104.80
2023-03-02T05:11:19.213Z,114.30
2023-03-02T05:14:45.851Z,101.53
2023-03-02T05:18:15.754Z,118.55
2023-03-02T05:21:30.399Z,108.03
2023-03-02T05:24:42.387Z,103.83
2023-03-02T05:32:48.892Z,111.95
2023-03-02T05:56:03.328Z,107.98
2023-03-02T06:16:40.821Z,109.70
2023-03-02T06:19:52.917Z,132.43
2023-03-02T06:23:04.982Z,125.28
2023-03-02T06:26:18.326Z,110.93
2023-03-02T06:29:30.764Z,108.35
2023-03-02T06:32:42.820Z,107.00
2023-03-02T06:35:55.719Z,106.83
2023-03-02T06:39:08.531Z,110.13
2023-03-02T06:42:20.402Z,106.10
2023-03-02T06:45:33.838Z,111.90
2023-03-02T06:48:46.197Z,140.53
2023-03-02T06:51:58.806Z,148.63
2023-03-02T06:55:12.643Z,116.08
2023-03-02T06:58:25.016Z,101.78
2023-03-02T07:01:36.978Z,107.50
2023-03-02T07:04:49.032Z,99.98
2023-03-02T07:08:01.159Z,102.30
2023-03-02T07:11:17.815Z,108.10
2023-03-02T07:14:30.081Z,144.78
2023-03-02T07:17:42.764Z,130.75
2023-03-02T07:20:54.826Z,119.43
2023-03-02T07:24:06.918Z,118.10
2023-03-02T07:27:18.929Z,126.95
2023-03-02T07:30:31.165Z,113.88
2023-03-02T07:33:44.113Z,120.03
2023-03-02T07:36:56.676Z,117.28
2023-03-02T07:40:09.978Z,140.80
2023-03-02T07:43:24.076Z,143.80
2023-03-02T07:46:36.029Z,107.25
2023-03-02T07:49:48.312Z,107.18
2023-03-02T07:53:00.361Z,113.85
2023-03-02T07:56:17.267Z,111.63
2023-03-02T07:59:29.426Z,117.60
2023-03-02T08:02:41.784Z,100.33
2023-03-02T08:05:56.785Z,119.95
2023-03-02T08:09:11.515Z,111.63
2023-03-02T08:12:23.408Z,119.70
2023-03-02T08:15:35.496Z,112.23
2023-03-02T08:18:48.519Z,102.60
2023-03-02T08:22:00.872Z,114.60
2023-03-02T08:25:14.826Z,110.55
2023-03-02T08:28:27.652Z,105.25
2023-03-02T08:31:40.070Z,101.28
2023-03-02T08:34:52.937Z,104.98
2023-03-02T08:38:05.026Z,116.55
2023-03-02T08:41:21.250Z,110.80
2023-03-02T08:44:33.301Z,108.05
2023-03-02T08:47:45.412Z,96.08
2023-03-02T08:51:08.660Z,92.25
2023-03-02T08:54:20.660Z,102.95
2023-03-02T08:57:34.841Z,91.35
2023-03-02T09:00:47.044Z,80.38
2023-03-02T09:04:00.711Z,69.93
2023-03-02T09:07:16.533Z,81.80
2023-03-02T09:10:28.671Z,159.50
2023-03-02T09:13:41.369Z,82.55
2023-03-02T09:16:53.820Z,77.80
2023-03-02T09:20:05.947Z,82.90
2023-03-02T09:23:17.921Z,91.58
2023-03-02T09:26:30.688Z,86.75
2023-03-02T09:29:42.759Z,78.78
2023-03-02T09:32:54.950Z,85.33
2023-03-02T09:36:11.581Z,71.50
2023-03-02T09:39:23.697Z,75.15
2023-03-02T09:42:49.610Z,66.13
2023-03-02T09:46:13.023Z,69.80
2023-03-02T09:49:32.139Z,66.25
2023-03-02T09:52:50.099Z,77.50
2023-03-02T09:56:05.651Z,112.13
2023-03-02T09:59:27.431Z,73.93
2023-03-02T10:02:45.217Z,68.05
2023-03-02T10:05:59.253Z,72.38
2023-03-02T10:09:12.636Z,63.03
2023-03-02T10:12:49.224Z,64.05
2023-03-02T10:16:16.654Z,62.38
2023-03-02T10:22:49.002Z,59.25
2023-03-02T10:26:08.115Z,70.08
2023-03-02T10:29:34.364Z,72.95
2023-03-02T10:32:51.097Z,69.93
2023-03-02T10:36:03.139Z,62.65
2023-03-02T10:39:21.389Z,63.08
2023-03-02T10:42:40.258Z,67.23
2023-03-02T10:45:54.717Z,59.25
2023-03-02T10:49:06.818Z,61.58
2023-03-02T10:52:23.280Z,59.20
2023-03-02T10:55:35.736Z,59.63
2023-03-02T10:58:47.690Z,81.05
2023-03-02T11:02:08.290Z,66.33
2023-03-02T11:05:33.862Z,60.85
2023-03-02T11:08:45.856Z,55.35
2023-03-02T11:12:02.370Z,47.70
2023-03-02T11:15:33.242Z,49.30
2023-03-02T11:18:51.401Z,47.90
2023-03-02T11:22:10.065Z,44.65
2023-03-02T11:25:28.057Z,40.38
2023-03-02T11:28:51.687Z,51.00
2023-03-02T11:32:10.487Z,41.70
2023-03-02T11:35:29.317Z,44.98
2023-03-02T11:38:47.461Z,33.25
2023-03-02T11:41:59.537Z,39.98
2023-03-02T11:45:23.762Z,40.23
2023-03-02T11:48:40.785Z,42.30
2023-03-02T11:55:20.503Z,35.23
2023-03-02T11:58:35.649Z,46.03
2023-03-02T12:01:48.380Z,53.93
2023-03-02T12:05:14.345Z,37.20
2023-03-02T12:08:43.813Z,37.75
2023-03-02T12:12:02.109Z,34.38
2023-03-02T12:15:43.713Z,32.58
2023-03-02T12:18:56.755Z,29.18
2023-03-02T12:22:13.495Z,29.33
2023-03-02T12:25:48.161Z,27.88
2023-03-02T12:29:09.338Z,32.45
2023-03-02T12:32:31.399Z,29.03
2023-03-02T12:35:44.346Z,27.43
2023-03-02T12:39:11.553Z,29.38
2023-03-02T12:42:41.800Z,32.78
2023-03-02T12:46:10.824Z,30.33
2023-03-02T12:49:50.158Z,33.15
2023-03-02T12:53:11.585Z,33.60
2023-03-02T12:56:31.452Z,34.60
2023-03-02T12:59:43.669Z,31.43
2023-03-02T13:02:58.477Z,36.20
2023-03-02T13:06:20.438Z,35.80
2023-03-02T13:09:32.841Z,31.33
2023-03-02T13:12:50.016Z,38.20
2023-03-02T13:16:05.088Z,32.03
2023-03-02T13:19:22.261Z,31.18
2023-03-02T13:22:35.233Z,32.80
2023-03-02T13:25:56.323Z,33.58
2023-03-02T13:29:23.144Z,30.73
2023-03-02T13:32:44.947Z,35.30
2023-03-02T13:35:57.333Z,33.95
2023-03-02T13:39:12.182Z,32.48
2023-03-02T13:42:36.670Z,33.83
2023-03-02T13:45:58.205Z,37.80
2023-03-02T13:49:12.833Z,38.18
2023-03-02T13:52:32.482Z,35.25
2023-03-02T13:55:45.690Z,34.60
2023-03-02T13:58:57.745Z,40.28
2023-03-02T14:02:13.595Z,36.75
2023-03-02T14:05:30.938Z,37.10
2023-03-02T14:08:43.089Z,32.38
2023-03-02T14:11:59.666Z,30.60
2023-03-02T14:15:17.247Z,35.53
2023-03-02T14:18:42.064Z,33.48
2023-03-02T14:21:54.385Z,32.63
2023-03-02T14:25:06.358Z,35.15
2023-03-02T14:28:20.801Z,33.95
2023-03-02T14:31:33.556Z,31.18
2023-03-02T14:34:46.601Z,36.93
2023-03-02T14:37:58.896Z,33.48
2023-03-02T14:41:11.498Z,32.58
2023-03-02T14:44:23.688Z,32.43
2023-03-02T14:47:35.670Z,36.88
2023-03-02T14:50:51.543Z,32.40
2023-03-02T14:54:07.851Z,33.55
2023-03-02T14:57:26.231Z,32.48
2023-03-02T15:00:38.602Z,34.55
2023-03-02T15:03:50.511Z,36.48
2023-03-02T15:07:02.553Z,35.45
2023-03-02T15:10:19.289Z,36.95
2023-03-02T15:13:31.459Z,38.03
2023-03-02T15:16:44.176Z,35.65
2023-03-02T15:19:57.572Z,38.68
2023-03-02T15:23:10.139Z,34.75
2023-03-02T15:26:22.889Z,38.63
2023-03-02T15:29:35.465Z,39.70
2023-03-02T15:32:47.893Z,36.43
2023-03-02T15:36:06.330Z,42.18
2023-03-02T15:39:21.237Z,33.58
2023-03-02T15:42:33.611Z,37.90
2023-03-02T15:45:54.644Z,41.85
2023-03-02T15:49:07.187Z,85.53
2023-03-02T15:52:20.972Z,44.48
2023-03-02T15:55:36.078Z,40.15
2023-03-02T15:58:53.672Z,40.83
2023-03-02T16:02:06.594Z,39.95
2023-03-02T16:08:18.990Z,39.73
2023-03-02T16:11:31.035Z,41.30
2023-03-02T16:14:43.046Z,35.90
2023-03-02T16:17:55.389Z,38.58
2023-03-02T16:21:07.835Z,37.50
2023-03-02T16:24:20.228Z,38.55
2023-03-02T16:27:32.454Z,37.85
2023-03-02T16:30:45.890Z,37.55
2023-03-02T16:33:59.124Z,36.03
2023-03-02T16:37:14.236Z,42.63
2023-03-02T16:40:29.900Z,40.05
2023-03-02T16:43:42.119Z,52.13
2023-03-02T16:46:57.003Z,39.73
2023-03-02T16:50:09.436Z,37.33
2023-03-02T16:53:21.971Z,47.40
2023-03-02T16:56:34.548Z,46.40
2023-03-02T16:59:46.777Z,47.08
2023-03-02T17:02:59.510Z,42.75
2023-03-02T17:06:13.801Z,43.88
2023-03-02T17:09:25.824Z,40.65
2023-03-02T17:12:37.722Z,42.98
2023-03-02T17:15:50.326Z,43.23
2023-03-02T17:19:02.744Z,45.03
2023-03-02T17:22:15.111Z,59.70
2023-03-02T17:25:28.148Z,47.08
2023-03-02T17:28:40.478Z,54.65
2023-03-02T17:31:52.570Z,57.95
2023-03-02T17:35:07.517Z,49.95
2023-03-02T17:38:20.347Z,52.63
2023-03-02T17:41:35.053Z,51.95
2023-03-02T17:44:48.326Z,63.13
2023-03-02T17:48:05.479Z,57.03
2023-03-02T17:51:20.510Z,58.30
2023-03-02T17:54:32.945Z,64.43
2023-03-02T17:57:46.484Z,63.75
2023-03-02T18:00:58.736Z,64.40
2023-03-02T18:04:11.181Z,67.13
2023-03-02T18:07:23.608Z,79.88
2023-03-02T18:10:35.797Z,67.25
2023-03-02T18:13:47.910Z,69.78
2023-03-02T18:17:00.400Z,83.60
2023-03-02T18:20:14.789Z,80.92
2023-03-02T18:23:27.151Z,77.08
2023-03-02T18:26:39.539Z,78.25
2023-03-02T18:29:51.761Z,74.13
2023-03-02T18:33:03.782Z,80.08
2023-03-02T18:36:16.873Z,76.60
2023-03-02T18:39:28.899Z,82.05
2023-03-02T18:42:41.190Z,84.23
2023-03-02T18:45:53.171Z,87.10
2023-03-02T18:49:05.891Z,83.50
2023-03-02T18:52:18.505Z,84.35
2023-03-02T18:55:31.571Z,92.17
2023-03-02T18:58:43.935Z,82.68
2023-03-02T19:01:56.177Z,85.22
2023-03-02T19:05:08.867Z,92.10
2023-03-02T19:08:22.889Z,98.18
2023-03-02T19:11:35.073Z,106.05
2023-03-02T19:14:47.269Z,106.45
2023-03-02T19:17:59.438Z,103.83
2023-03-02T19:21:12.759Z,119.13
2023-03-02T19:24:24.861Z,117.13
2023-03-02T19:27:37.846Z,102.20
2023-03-02T19:30:50.032Z,107.93
2023-03-02T19:34:04.171Z,117.05
2023-03-02T19:37:18.616Z,122.55
2023-03-02T19:40:34.600Z,108.28
2023-03-02T19:43:47.183Z,117.33
2023-03-02T19:46:59.825Z,113.35
2023-03-02T19:59:14.076Z,120.28
2023-03-02T20:02:28.029Z,138.83
2023-03-02T20:05:41.277Z,129.88
2023-03-02T20:08:56.140Z,149.08
2023-03-02T20:12:18.482Z,147.33
2023-03-02T20:15:32.396Z,142.03
2023-03-02T20:18:45.696Z,136.78
2023-03-02T20:22:02.737Z,130.55
2023-03-02T20:32:20.369Z,136.58
2023-03-02T20:39:02.647Z,139.23
2023-03-02T20:42:16.149Z,133.00
2023-03-02T20:45:28.472Z,143.45
2023-03-02T20:48:41.610Z,134.65
2023-03-02T20:51:57.357Z,134.95
2023-03-02T20:55:10.538Z,139.28
2023-03-02T20:58:22.640Z,129.73
2023-03-02T21:01:34.910Z,141.98
2023-03-02T21:04:47.923Z,141.73
2023-03-02T21:08:00.298Z,131.40
2023-03-02T21:11:15.652Z,136.83
2023-03-02T21:14:27.973Z,127.90
2023-03-02T21:17:41.521Z,128.55
2023-03-02T21:20:56.121Z,132.78
2023-03-02T21:24:09.179Z,126.15
2023-03-02T21:27:21.459Z,115.55
2023-03-02T21:30:38.202Z,115.03
2023-03-02T21:33:51.839Z,118.80
2023-03-02T21:37:04.883Z,113.03
2023-03-02T21:40:24.944Z,129.25
2023-03-02T21:43:37.473Z,118.13
2023-03-02T21:46:51.509Z,112.53
2023-03-02T21:50:09.649Z,118.68
2023-03-02T21:53:22.619Z,109.90
2023-03-02T21:56:36.601Z,106.58
2023-03-02T21:59:51.347Z,112.48
2023-03-02T22:03:04.892Z,109.88
2023-03-02T22:06:23.244Z,102.40
2023-03-02T22:09:41.109Z,108.08
2023-03-02T22:12:54.682Z,110.93
2023-03-02T22:16:17.890Z,99.83
2023-03-02T22:19:36.073Z,107.03
2023-03-02T22:22:48.564Z,99.63
2023-03-02T22:26:05.985Z,98.58
2023-03-02T22:29:24.911Z,98.75
2023-03-02T22:32:40.611Z,92.28
2023-03-02T22:35:53.391Z,93.53
2023-03-02T22:39:14.382Z,108.33
2023-03-02T22:42:31.198Z,100.50
2023-03-02T22:46:01.317Z,104.78
2023-03-02T22:49:21.991Z,101.48
2023-03-02T22:52:46.872Z,94.20
2023-03-02T23:11:25.212Z,98.93
2023-03-02T23:14:46.015Z,103.55
2023-03-02T23:36:33.254Z,105.33
